Time;durP1;ratioP1;P1;durP2;ratioP2;P2;SDS_P1;SDS_P2;PMS_P1;PMS_P2;Temp;Humidity;BMP_temperature;BMP_pressure;BME280_temperature;BME280_humidity;BME280_pressure;Samples;Min_cycle;Max_cycle;Signal;HPM_P1;HPM_P2
2021/01/19 00:00:20;;;;;;;13.63;9.45;;;;;;;2.12;75.40;101045.09;691584;28;23522;-64
2021/01/19 00:00:42;;;;;;;13.98;9.38;;;;;;;2.12;75.39;101045.09;688655;28;19441;-65
2021/01/19 00:01:03;;;;;;;11.65;8.43;;;;;;;2.12;75.44;101040.59;688192;28;45351;-65
2021/01/19 00:01:24;;;;;;;13.02;8.43;;;;;;;2.12;75.27;101039.75;688304;28;23685;-64
2021/01/19 00:01:46;;;;;;;12.38;8.68;;;;;;;2.12;75.35;101040.59;688175;28;23813;-65
2021/01/19 00:02:07;;;;;;;12.18;8.80;;;;;;;2.13;75.24;101042.31;688328;28;45498;-64
2021/01/19 00:02:29;;;;;;;13.10;8.75;;;;;;;2.14;75.31;101038.66;688946;28;24626;-62
2021/01/19 00:02:50;;;;;;;12.63;8.10;;;;;;;2.13;75.32;101042.31;690659;28;44471;-63
2021/01/19 00:03:11;;;;;;;14.73;8.80;;;;;;;2.14;75.26;101043.97;692241;28;23322;-63
2021/01/19 00:03:32;;;;;;;13.85;9.00;;;;;;;2.16;75.27;101044.75;691472;28;22462;-64
2021/01/19 00:03:54;;;;;;;13.25;8.85;;;;;;;2.17;75.35;101040.25;691380;28;22268;-63
2021/01/19 00:04:15;;;;;;;11.57;8.20;;;;;;;2.16;75.30;101039.41;690242;28;46300;-64
2021/01/19 00:04:36;;;;;;;12.98;8.38;;;;;;;2.19;75.30;101040.13;691511;28;23017;-63
2021/01/19 00:05:00;;;;;;;13.90;8.80;;;;;;;2.20;75.07;101044.50;691129;28;22994;-63
2021/01/19 00:05:21;;;;;;;11.15;8.23;;;;;;;2.19;75.13;101027.66;690255;28;47288;-63
2021/01/19 00:05:44;;;;;;;12.27;8.68;;;;;;;2.24;75.02;101035.31;688688;28;23416;-63
2021/01/19 00:06:06;;;;;;;12.98;8.65;;;;;;;2.24;75.03;101038.84;687422;28;69241;-63
2021/01/19 00:06:27;;;;;;;12.05;8.63;;;;;;;2.24;74.89;101037.97;689000;28;22426;-64
2021/01/19 00:06:49;;;;;;;12.68;8.88;;;;;;;2.22;75.00;101039.91;690133;28;46151;-63
2021/01/19 00:07:10;;;;;;;13.60;8.70;;;;;;;2.23;75.16;101041.63;690923;28;22450;-65
2021/01/19 00:07:32;;;;;;;12.32;8.55;;;;;;;2.20;75.03;101037.34;691431;28;21326;-64
2021/01/19 00:07:53;;;;;;;12.23;8.70;;;;;;;2.19;75.09;101038.31;690570;28;46650;-64
2021/01/19 00:08:14;;;;;;;12.77;8.55;;;;;;;2.17;75.19;101041.09;692226;28;23302;-63
2021/01/19 00:08:35;;;;;;;15.32;8.70;;;;;;;2.21;75.23;101041.72;691351;28;23565;-64
2021/01/19 00:08:56;;;;;;;12.35;8.38;;;;;;;2.19;75.28;101034.81;691598;28;6055;-64
2021/01/19 00:09:18;;;;;;;13.43;8.68;;;;;;;2.19;75.20;101040.13;690953;28;20916;-63
2021/01/19 00:09:39;;;;;;;12.25;8.55;;;;;;;2.17;75.30;101038.44;691756;28;16614;-63
2021/01/19 00:10:01;;;;;;;11.02;8.32;;;;;;;2.16;75.24;101033.22;690367;28;41342;-63
2021/01/19 00:10:23;;;;;;;12.98;8.90;;;;;;;2.14;75.25;101033.31;691986;28;1003;-63
2021/01/19 00:10:50;;;;;;;14.32;8.80;;;;;;;2.13;75.19;101028.09;690614;28;61620;-65
2021/01/19 00:11:11;;;;;;;14.23;8.75;;;;;;;2.13;75.31;101039.63;690780;28;46411;-65
2021/01/19 00:11:34;;;;;;;14.13;8.75;;;;;;;2.14;75.30;101035.16;691803;28;883;-65
2021/01/19 00:11:55;;;;;;;12.30;8.50;;;;;;;2.15;75.33;101029.72;690663;28;23494;-65
2021/01/19 00:12:17;;;;;;;11.63;8.30;;;;;;;2.14;75.39;101028.00;692291;28;12499;-63
2021/01/19 00:12:38;;;;;;;13.75;8.55;;;;;;;2.14;75.30;101032.50;691278;28;29348;-63
2021/01/19 00:12:59;;;;;;;13.20;8.63;;;;;;;2.11;75.24;101030.06;691769;28;14620;-63
2021/01/19 00:13:20;;;;;;;13.63;8.60;;;;;;;2.12;75.27;101034.44;693049;28;975;-64
2021/01/19 00:13:42;;;;;;;13.55;8.48;;;;;;;2.10;75.33;101031.88;690510;28;46339;-64
2021/01/19 00:14:03;;;;;;;11.60;8.50;;;;;;;2.11;75.34;101033.56;690979;28;24521;-64
2021/01/19 00:14:24;;;;;;;13.10;8.75;;;;;;;2.14;75.35;101043.16;690159;28;46329;-64
2021/01/19 00:14:46;;;;;;;11.80;8.73;;;;;;;2.13;75.34;101028.97;691496;28;23521;-64
2021/01/19 00:15:08;;;;;;;12.23;8.40;;;;;;;2.11;75.34;101032.72;691180;28;14245;-64
2021/01/19 00:15:30;;;;;;;14.18;8.63;;;;;;;2.12;75.39;101026.44;690632;28;45480;-64
2021/01/19 00:15:51;;;;;;;14.73;8.95;;;;;;;2.13;75.71;101031.66;692192;28;962;-65
2021/01/19 00:16:13;;;;;;;13.90;8.85;;;;;;;2.12;75.43;101029.94;690234;28;46332;-65
2021/01/19 00:16:34;;;;;;;13.05;9.15;;;;;;;2.11;75.20;101028.22;691709;28;1364;-65
2021/01/19 00:16:55;;;;;;;13.02;8.93;;;;;;;2.11;75.24;101030.06;691565;28;23521;-64
2021/01/19 00:17:17;;;;;;;16.75;9.30;;;;;;;2.09;75.44;101027.50;691969;28;20283;-63
2021/01/19 00:17:39;;;;;;;13.77;8.63;;;;;;;2.09;75.28;101026.66;690567;28;47451;-63
2021/01/19 00:18:00;;;;;;;10.90;8.02;;;;;;;2.10;75.41;101031.00;691241;28;17390;-63
2021/01/19 00:18:21;;;;;;;13.43;8.45;;;;;;;2.09;75.28;101024.84;690572;28;46469;-63
2021/01/19 00:18:43;;;;;;;12.55;8.73;;;;;;;2.09;75.31;101026.66;691388;28;14935;-63
2021/01/19 00:19:04;;;;;;;14.37;8.47;;;;;;;2.08;75.39;101027.63;691320;28;21882;-63
2021/01/19 00:19:26;;;;;;;12.75;8.35;;;;;;;2.08;75.36;101030.28;690616;28;46444;-63
2021/01/19 00:19:47;;;;;;;11.55;8.38;;;;;;;2.07;75.43;101029.44;691861;28;22411;-64
2021/01/19 00:20:09;;;;;;;11.07;8.57;;;;;;;2.08;75.45;101028.47;691614;28;16492;-63
2021/01/19 00:20:31;;;;;;;12.57;8.70;;;;;;;2.09;75.45;101032.84;689291;28;70487;-62
2021/01/19 00:20:55;;;;;;;13.43;8.65;;;;;;;2.10;75.42;101031.00;690447;28;38045;-65
2021/01/19 00:21:17;;;;;;;12.82;8.32;;;;;;;2.09;75.44;101021.34;690524;28;44538;-64
2021/01/19 00:21:38;;;;;;;12.43;8.45;;;;;;;2.09;75.36;101024.84;690762;28;39710;-64
2021/01/19 00:22:00;;;;;;;14.10;8.48;;;;;;;2.11;75.36;101025.56;691208;28;22487;-65
2021/01/19 00:22:21;;;;;;;12.75;8.73;;;;;;;2.11;75.51;101022.91;690558;28;45933;-64
2021/01/19 00:22:43;;;;;;;13.80;8.98;;;;;;;2.10;75.43;101025.69;690948;28;21540;-64
2021/01/19 00:23:04;;;;;;;11.98;8.57;;;;;;;2.09;75.47;101032.84;691651;28;21541;-64
2021/01/19 00:23:26;;;;;;;12.73;8.65;;;;;;;2.12;75.41;101029.09;690610;28;44390;-64
2021/01/19 00:23:47;;;;;;;12.85;8.70;;;;;;;2.11;75.42;101017.56;691617;28;21522;-71
2021/01/19 00:24:09;;;;;;;12.90;8.88;;;;;;;2.09;75.40;101024.00;687538;28;44369;-64
2021/01/19 00:24:30;;;;;;;14.65;9.20;;;;;;;2.10;75.42;101020.34;687148;28;44405;-64
2021/01/19 00:24:51;;;;;;;13.35;8.80;;;;;;;2.11;75.44;101025.56;688505;28;21521;-63
2021/01/19 00:25:13;;;;;;;14.80;8.32;;;;;;;2.13;75.39;101015.66;688030;28;21572;-63
2021/01/19 00:25:35;;;;;;;12.80;8.10;;;;;;;2.10;75.39;101026.53;688077;28;44511;-63
2021/01/19 00:25:56;;;;;;;12.35;8.35;;;;;;;2.13;75.43;101026.31;688382;28;44436;-64
2021/01/19 00:26:18;;;;;;;13.55;8.88;;;;;;;2.12;75.41;101026.44;691362;28;22280;-64
2021/01/19 00:26:40;;;;;;;15.57;9.23;;;;;;;2.13;75.39;101021.00;691441;28;22404;-64
2021/01/19 00:27:04;;;;;;;15.85;9.02;;;;;;;2.10;75.54;101013.22;689554;28;69454;-64
2021/01/19 00:27:25;;;;;;;12.85;9.07;;;;;;;2.11;75.29;101028.22;689061;28;69679;-64
2021/01/19 00:27:46;;;;;;;12.20;8.70;;;;;;;2.11;75.48;101028.22;685831;28;34088;-64
2021/01/19 00:28:08;;;;;;;14.68;8.85;;;;;;;2.13;75.40;101017.44;686875;28;23283;-63
2021/01/19 00:28:30;;;;;;;16.05;9.27;;;;;;;2.11;75.35;101032.72;685781;28;22801;-63
2021/01/19 00:28:51;;;;;;;15.52;8.82;;;;;;;2.17;75.37;101024.25;684925;28;46341;-63
2021/01/19 00:29:12;;;;;;;12.93;8.00;;;;;;;2.16;75.48;101019.88;685632;28;35904;-63
2021/01/19 00:29:33;;;;;;;12.73;8.40;;;;;;;2.17;75.25;101019.78;687236;28;23483;-64
2021/01/19 00:29:55;;;;;;;12.18;8.25;;;;;;;2.20;75.26;101023.19;689966;28;23507;-63
2021/01/19 00:30:17;;;;;;;11.75;8.35;;;;;;;2.22;75.11;101014.09;691147;28;21653;-63
2021/01/19 00:30:39;;;;;;;12.73;8.50;;;;;;;2.23;75.39;101015.81;690595;28;68573;-64
2021/01/19 00:31:00;;;;;;;12.93;8.38;;;;;;;2.22;75.29;101021.25;690032;28;44846;-65
2021/01/19 00:31:22;;;;;;;13.30;8.35;;;;;;;2.22;75.31;101013.25;690998;28;23428;-64
2021/01/19 00:31:43;;;;;;;11.43;8.10;;;;;;;2.20;75.31;101024.03;687159;28;46587;-64
2021/01/19 00:32:05;;;;;;;11.73;8.40;;;;;;;2.21;75.35;101017.75;688878;28;24379;-63
2021/01/19 00:32:27;;;;;;;11.98;8.02;;;;;;;2.15;75.29;101012.88;687602;28;42357;-65
2021/01/19 00:32:49;;;;;;;12.75;8.60;;;;;;;2.20;75.29;101015.19;689122;28;971;-64
2021/01/19 00:33:11;;;;;;;12.07;8.90;;;;;;;2.22;75.24;101015.91;688708;28;1700;-64
2021/01/19 00:33:36;;;;;;;11.75;8.32;;;;;;;2.20;75.20;101021.38;688091;28;54740;-64
2021/01/19 00:33:57;;;;;;;12.20;8.27;;;;;;;2.19;75.23;101011.66;688080;28;112411;-64
2021/01/19 00:34:20;;;;;;;11.95;8.52;;;;;;;2.17;75.27;101013.59;690982;28;22450;-65
2021/01/19 00:34:41;;;;;;;10.70;8.13;;;;;;;2.15;75.14;101019.03;690413;28;45322;-63
2021/01/19 00:35:03;;;;;;;12.00;8.50;;;;;;;2.15;75.31;101019.03;690459;28;46301;-65
2021/01/19 00:35:25;;;;;;;14.48;8.88;;;;;;;2.14;75.29;101012.00;690631;28;46517;-65
2021/01/19 00:35:46;;;;;;;12.10;8.30;;;;;;;2.14;75.31;101013.84;690877;28;22380;-64
2021/01/19 00:36:08;;;;;;;13.85;8.10;;;;;;;2.15;75.27;101021.72;691946;28;35611;-64
2021/01/19 00:36:30;;;;;;;12.68;8.15;;;;;;;2.16;75.41;101020.75;690575;28;44396;-63
2021/01/19 00:36:51;;;;;;;12.55;8.38;;;;;;;2.17;75.30;101022.44;690570;28;44397;-62
2021/01/19 00:37:13;;;;;;;12.23;8.60;;;;;;;2.17;75.29;101016.28;690960;28;21551;-63
2021/01/19 00:37:34;;;;;;;13.40;8.55;;;;;;;2.15;75.36;101013.72;690181;28;45234;-62
2021/01/19 00:37:59;;;;;;;12.10;8.45;;;;;;;2.14;75.29;101016.50;691082;28;23639;-63
2021/01/19 00:38:20;;;;;;;11.85;8.15;;;;;;;2.18;75.33;101017.97;687904;28;113690;-63
2021/01/19 00:38:42;;;;;;;14.20;8.27;;;;;;;2.20;75.41;101018.69;691258;28;44712;-63
2021/01/19 00:39:03;;;;;;;14.00;8.85;;;;;;;2.21;75.39;101015.09;691391;28;23577;-64
2021/01/19 00:39:24;;;;;;;11.32;8.40;;;;;;;2.22;75.36;101016.75;690510;28;45276;-64
2021/01/19 00:39:46;;;;;;;13.35;8.90;;;;;;;2.22;75.39;101018.59;690807;28;23720;-64
2021/01/19 00:40:09;;;;;;;13.98;8.48;;;;;;;2.21;75.24;101016.88;690608;28;46042;-63
2021/01/19 00:40:31;;;;;;;12.70;8.68;;;;;;;2.20;75.35;101015.19;689675;28;67503;-65
2021/01/19 00:40:52;;;;;;;13.85;9.02;;;;;;;2.17;75.26;101017.09;690198;28;45282;-64
2021/01/19 00:41:14;;;;;;;12.52;8.30;;;;;;;2.17;75.30;101009.13;691543;28;22118;-64
2021/01/19 00:41:35;;;;;;;14.90;8.82;;;;;;;2.16;75.22;101014.56;690700;28;46374;-64
2021/01/19 00:41:56;;;;;;;13.48;8.90;;;;;;;2.21;75.29;101019.53;690866;28;22511;-64
2021/01/19 00:42:17;;;;;;;12.93;8.60;;;;;;;2.23;75.22;101012.31;691709;28;12367;-64
2021/01/19 00:42:39;;;;;;;13.90;9.18;;;;;;;2.25;75.15;101013.88;689846;28;22484;-64
2021/01/19 00:43:00;;;;;;;12.45;8.65;;;;;;;2.21;75.01;101006.22;690783;28;44219;-64
2021/01/19 00:43:22;;;;;;;13.15;8.32;;;;;;;2.20;75.22;101007.19;690700;28;22541;-64
2021/01/19 00:43:43;;;;;;;12.25;8.25;;;;;;;2.21;75.29;101015.09;690565;28;44397;-66
2021/01/19 00:44:05;;;;;;;10.98;8.20;;;;;;;2.21;75.11;101014.22;691710;28;1245;-64
2021/01/19 00:44:28;;;;;;;12.80;8.73;;;;;;;2.17;75.22;101014.44;692026;28;1973;-64
2021/01/19 00:44:49;;;;;;;12.05;8.50;;;;;;;2.14;75.20;101005.84;690023;28;47569;-64
2021/01/19 00:45:11;;;;;;;12.90;8.57;;;;;;;2.15;75.28;101008.38;690947;28;21535;-63
2021/01/19 00:45:32;;;;;;;11.18;8.27;;;;;;;2.17;75.37;101010.94;690128;28;44425;-64
2021/01/19 00:45:54;;;;;;;11.52;8.68;;;;;;;2.16;75.25;101010.09;691432;28;22407;-64
2021/01/19 00:46:16;;;;;;;14.40;8.90;;;;;;;2.16;75.27;101006.56;691339;28;43691;-64
2021/01/19 00:46:37;;;;;;;12.55;8.65;;;;;;;2.16;75.31;101010.09;690006;28;44411;-63
2021/01/19 00:46:58;;;;;;;13.15;8.57;;;;;;;2.15;75.40;101010.22;690403;28;21565;-64
2021/01/19 00:47:19;;;;;;;13.10;8.63;;;;;;;2.16;75.43;101011.88;689484;28;22443;-63
2021/01/19 00:47:41;;;;;;;13.15;8.32;;;;;;;2.16;75.24;101014.56;689399;28;22889;-63
2021/01/19 00:48:03;;;;;;;11.50;8.05;;;;;;;2.17;75.30;101008.28;688578;28;46557;-63
2021/01/19 00:48:26;;;;;;;10.63;7.97;;;;;;;2.16;75.19;101006.56;686408;28;14671;-62
2021/01/19 00:48:48;;;;;;;12.32;9.05;;;;;;;2.18;75.30;101009.97;687589;28;35798;-64
2021/01/19 00:49:09;;;;;;;12.63;8.90;;;;;;;2.17;75.26;101009.13;687190;28;19509;-65
2021/01/19 00:49:39;;;;;;;13.25;8.48;;;;;;;2.19;75.34;101009.00;685458;28;61296;-65
2021/01/19 00:50:00;;;;;;;12.57;8.18;;;;;;;2.16;75.45;101010.09;686289;28;45634;-65
2021/01/19 00:50:21;;;;;;;11.82;8.32;;;;;;;2.12;75.44;101013.94;688792;28;23515;-64
2021/01/19 00:50:44;;;;;;;11.73;8.45;;;;;;;2.17;75.58;101016.28;690577;28;909;-64
2021/01/19 00:51:06;;;;;;;11.98;8.48;;;;;;;2.17;75.47;101008.28;686614;28;60526;-64
2021/01/19 00:51:33;;;;;;;12.43;8.52;;;;;;;2.17;75.51;101011.78;686152;28;46226;-62
2021/01/19 00:51:55;;;;;;;14.32;8.70;;;;;;;2.18;75.57;101012.66;681816;28;156641;-63
2021/01/19 00:52:16;;;;;;;14.60;8.55;;;;;;;2.21;75.46;101008.88;685752;28;47699;-63
2021/01/19 00:52:38;;;;;;;13.02;8.38;;;;;;;2.22;75.42;101021.25;686475;28;18612;-63
2021/01/19 00:53:01;;;;;;;14.02;8.23;;;;;;;2.20;75.40;101007.19;682895;28;92188;-62
2021/01/19 00:53:22;;;;;;;13.40;8.55;;;;;;;2.21;75.44;101023.06;684775;28;1129;-63
2021/01/19 00:53:43;;;;;;;12.27;8.38;;;;;;;2.22;75.65;101016.75;682232;29;22294;-64
2021/01/19 00:54:06;;;;;;;15.23;8.70;;;;;;;2.21;75.44;101015.09;680796;29;46301;-64
2021/01/19 00:54:28;;;;;;;14.02;8.77;;;;;;;2.18;75.41;101017.97;676980;29;69471;-64
2021/01/19 00:54:49;;;;;;;11.88;8.77;;;;;;;2.17;75.48;101011.78;679457;29;2681;-64
2021/01/19 00:55:12;;;;;;;11.20;8.75;;;;;;;2.16;75.60;101017.22;681073;28;22552;-64
2021/01/19 00:55:35;;;;;;;11.73;8.25;;;;;;;2.17;75.55;101011.78;678727;28;92316;-64
2021/01/19 00:55:57;;;;;;;13.93;8.45;;;;;;;2.17;75.60;101016.28;679445;29;69363;-64
2021/01/19 00:56:19;;;;;;;11.95;8.45;;;;;;;2.20;75.57;101018.69;682977;28;45281;-63
2021/01/19 00:56:41;;;;;;;15.52;9.23;;;;;;;2.22;75.52;101015.91;681519;29;12857;-62
2021/01/19 00:57:08;;;;;;;13.80;8.50;;;;;;;2.23;75.34;101014.97;677239;28;136468;-63
2021/01/19 00:57:31;;;;;;;13.13;8.98;;;;;;;2.21;75.38;101014.22;676336;29;90354;-63
2021/01/19 00:57:52;;;;;;;15.52;8.85;;;;;;;2.23;75.38;101017.63;681091;28;46445;-63
2021/01/19 00:58:20;;;;;;;11.20;8.15;;;;;;;2.25;75.31;101015.69;680991;28;61387;-63
2021/01/19 00:58:43;;;;;;;12.10;8.35;;;;;;;2.24;75.20;101019.31;686620;28;1181;-63
2021/01/19 00:59:05;;;;;;;12.35;8.43;;;;;;;2.24;75.20;101021.97;682839;28;46486;-63
2021/01/19 00:59:27;;;;;;;11.52;7.97;;;;;;;2.27;75.18;101019.06;686794;28;912;-63
2021/01/19 00:59:48;;;;;;;14.88;8.30;;;;;;;2.27;75.26;101008.41;687181;28;23608;-63
2021/01/19 01:00:10;;;;;;;13.52;8.63;;;;;;;2.25;75.14;101018.34;687142;28;22412;-63
2021/01/19 01:00:31;;;;;;;11.48;8.70;;;;;;;2.24;75.15;101014.84;685117;28;69470;-63
2021/01/19 01:00:53;;;;;;;12.73;9.00;;;;;;;2.25;75.35;101015.69;687500;28;23037;-63
2021/01/19 01:01:14;;;;;;;11.38;8.52;;;;;;;2.26;75.22;101025.41;690481;28;24403;-64
2021/01/19 01:01:43;;;;;;;13.23;8.27;;;;;;;2.26;75.41;101015.56;689599;28;21662;-64
2021/01/19 01:02:04;;;;;;;13.23;8.05;;;;;;;2.24;75.23;101022.84;685116;28;137979;-64
2021/01/19 01:02:25;;;;;;;14.18;8.82;;;;;;;2.23;75.41;101015.81;689491;28;23514;-65
2021/01/19 01:02:47;;;;;;;10.15;8.07;;;;;;;2.21;75.45;101012.41;689817;28;1073;-64
2021/01/19 01:03:08;;;;;;;11.65;8.00;;;;;;;2.22;75.31;101013.25;689776;28;13030;-64
2021/01/19 01:03:30;;;;;;;13.25;8.60;;;;;;;2.21;75.25;101014.22;689309;28;23471;-64
2021/01/19 01:03:51;;;;;;;11.95;8.30;;;;;;;2.18;75.37;101015.31;689742;28;46360;-64
2021/01/19 01:04:12;;;;;;;11.07;8.20;;;;;;;2.19;75.39;101013.50;689543;28;22235;-64
2021/01/19 01:04:33;;;;;;;11.77;8.60;;;;;;;2.16;75.45;101014.56;688776;28;46278;-64
2021/01/19 01:04:55;;;;;;;11.80;8.57;;;;;;;2.17;75.39;101019.78;689416;28;24357;-64
2021/01/19 01:05:16;;;;;;;12.50;8.60;;;;;;;2.17;75.38;101014.44;688482;28;43579;-64
2021/01/19 01:05:38;;;;;;;13.25;8.65;;;;;;;2.16;75.29;101017.22;689258;28;23520;-64
2021/01/19 01:05:59;;;;;;;13.75;8.95;;;;;;;2.16;75.46;101017.22;689446;28;22371;-64
2021/01/19 01:06:21;;;;;;;13.05;8.00;;;;;;;2.17;75.54;101013.59;689554;28;22405;-64
2021/01/19 01:06:43;;;;;;;12.73;8.10;;;;;;;2.18;75.60;101012.66;688738;28;45299;-64
2021/01/19 01:07:04;;;;;;;11.10;8.18;;;;;;;2.20;75.52;101013.38;688361;28;46452;-64
2021/01/19 01:07:25;;;;;;;12.88;8.60;;;;;;;2.17;75.47;101017.09;688546;28;44365;-64
2021/01/19 01:07:47;;;;;;;12.35;8.52;;;;;;;2.16;75.41;101007.44;688396;28;23333;-63
2021/01/19 01:08:09;;;;;;;10.10;7.95;;;;;;;2.17;75.42;101017.09;688734;28;44394;-63
2021/01/19 01:08:30;;;;;;;11.65;8.35;;;;;;;2.16;75.41;101011.88;689883;28;965;-64
2021/01/19 01:08:51;;;;;;;12.02;8.40;;;;;;;2.20;75.42;101013.38;690565;28;22386;-62
2021/01/19 01:09:13;;;;;;;12.18;8.40;;;;;;;2.20;75.40;101009.88;689039;28;45397;-62
2021/01/19 01:09:37;;;;;;;12.93;8.30;;;;;;;2.21;75.40;101009.75;689722;28;22415;-63
2021/01/19 01:09:58;;;;;;;11.50;8.48;;;;;;;2.20;75.35;101015.19;687530;28;87431;-63
2021/01/19 01:10:19;;;;;;;11.23;8.32;;;;;;;2.20;75.39;101010.72;689577;28;23451;-61
2021/01/19 01:10:41;;;;;;;12.02;8.52;;;;;;;2.20;75.31;101016.03;689217;28;23440;-62
2021/01/19 01:11:06;;;;;;;12.23;8.70;;;;;;;2.22;75.41;101013.25;689676;28;22555;-62
2021/01/19 01:11:27;;;;;;;13.77;9.07;;;;;;;2.20;75.34;101009.88;686366;28;114922;-64
2021/01/19 01:11:48;;;;;;;12.90;8.60;;;;;;;2.18;75.36;101007.31;688146;28;22412;-64
2021/01/19 01:12:10;;;;;;;12.27;8.63;;;;;;;2.18;75.38;101002.00;690098;28;14907;-64
2021/01/19 01:12:31;;;;;;;11.43;8.73;;;;;;;2.19;75.16;101005.50;688905;28;39543;-63
2021/01/19 01:12:52;;;;;;;15.27;8.95;;;;;;;2.19;75.46;101010.81;686032;28;47581;-64
2021/01/19 01:13:13;;;;;;;13.18;8.63;;;;;;;2.19;75.28;101002.81;684193;28;17434;-64
2021/01/19 01:13:37;;;;;;;13.18;8.52;;;;;;;2.17;75.23;101011.78;684720;28;21949;-64
2021/01/19 01:13:58;;;;;;;11.25;8.55;;;;;;;2.14;75.33;101014.66;682451;28;76641;-65
2021/01/19 01:14:20;;;;;;;11.23;8.45;;;;;;;2.14;75.45;101011.16;683702;28;22199;-64
2021/01/19 01:14:41;;;;;;;11.77;8.13;;;;;;;2.14;75.47;101011.16;684645;28;23185;-65
2021/01/19 01:15:04;;;;;;;12.02;7.80;;;;;;;2.14;75.46;101009.34;687272;28;22392;-64
2021/01/19 01:15:31;;;;;;;13.18;8.60;;;;;;;2.13;75.48;101010.34;687281;28;92701;-64
2021/01/19 01:15:52;;;;;;;10.35;7.90;;;;;;;2.13;75.33;101005.00;685875;28;138871;-65
2021/01/19 01:16:14;;;;;;;10.90;8.15;;;;;;;2.14;75.41;101004.00;690340;28;23554;-64
2021/01/19 01:16:36;;;;;;;11.77;8.65;;;;;;;2.15;75.43;101008.38;689222;28;23542;-64
2021/01/19 01:16:57;;;;;;;12.30;8.63;;;;;;;2.16;75.40;101011.88;688897;28;44423;-65
2021/01/19 01:17:18;;;;;;;13.88;8.65;;;;;;;2.17;75.38;101010.94;688889;28;47740;-64
2021/01/19 01:17:40;;;;;;;14.35;8.98;;;;;;;2.17;75.52;101008.28;690338;28;6820;-64
2021/01/19 01:18:02;;;;;;;14.68;8.45;;;;;;;2.16;75.45;101004.78;689004;28;46652;-64
2021/01/19 01:18:23;;;;;;;14.30;8.20;;;;;;;2.14;75.50;101012.00;688741;28;46402;-64
2021/01/19 01:18:44;;;;;;;12.38;8.50;;;;;;;2.17;75.52;101008.28;687416;28;23572;-62
2021/01/19 01:19:08;;;;;;;13.43;8.48;;;;;;;2.17;75.40;101008.28;687563;28;910;-62
2021/01/19 01:19:30;;;;;;;13.45;9.02;;;;;;;2.19;75.39;101010.81;686320;28;42975;-63
2021/01/19 01:19:51;;;;;;;14.95;9.27;;;;;;;2.16;75.44;101004.78;689059;28;46404;-62
2021/01/19 01:20:13;;;;;;;11.48;8.20;;;;;;;2.17;75.38;101006.44;689909;28;23063;-62
2021/01/19 01:20:35;;;;;;;12.27;8.10;;;;;;;2.16;75.57;101020.75;689514;28;883;-62
2021/01/19 01:20:56;;;;;;;12.88;8.38;;;;;;;2.15;75.50;101015.53;687192;28;46438;-63
2021/01/19 01:21:18;;;;;;;10.48;8.32;;;;;;;2.14;75.47;101005.84;689542;28;23700;-63
2021/01/19 01:21:39;;;;;;;14.20;8.93;;;;;;;2.15;75.62;101013.72;688788;28;17790;-63
2021/01/19 01:22:01;;;;;;;13.93;9.05;;;;;;;2.14;75.45;101009.34;687269;28;46384;-62
2021/01/19 01:22:23;;;;;;;13.10;8.65;;;;;;;2.16;75.51;101010.09;687232;28;45352;-63
2021/01/19 01:22:45;;;;;;;12.77;8.98;;;;;;;2.17;75.56;101009.13;689475;28;23386;-63
2021/01/19 01:23:06;;;;;;;11.35;8.20;;;;;;;2.17;75.52;101010.94;688529;28;55984;-61
2021/01/19 01:23:28;;;;;;;11.73;8.10;;;;;;;2.15;75.44;100991.56;689786;28;24308;-62
2021/01/19 01:23:49;;;;;;;11.15;7.82;;;;;;;2.15;75.48;101003.06;689902;28;22373;-64
2021/01/19 01:24:11;;;;;;;12.30;8.43;;;;;;;2.15;75.41;101003.06;687651;28;46128;-64
2021/01/19 01:24:32;;;;;;;13.38;8.77;;;;;;;2.14;75.54;101001.34;688949;28;15448;-64
2021/01/19 01:24:53;;;;;;;11.65;8.20;;;;;;;2.14;75.53;101009.34;690270;28;871;-64
2021/01/19 01:25:16;;;;;;;12.18;8.30;;;;;;;2.11;75.62;100998.06;689315;28;22366;-64
2021/01/19 01:25:37;;;;;;;12.10;8.13;;;;;;;2.14;75.47;101006.69;688229;28;46212;-64
2021/01/19 01:25:59;;;;;;;12.65;8.32;;;;;;;2.15;75.42;101002.22;687610;28;44407;-64
2021/01/19 01:26:20;;;;;;;11.77;8.15;;;;;;;2.14;75.66;101006.69;687668;28;23490;-64
2021/01/19 01:26:42;;;;;;;13.20;8.50;;;;;;;2.14;75.60;101006.69;687323;28;45288;-64
2021/01/19 01:27:03;;;;;;;12.63;8.13;;;;;;;2.15;75.51;101011.06;688499;28;23300;-64
2021/01/19 01:27:27;;;;;;;14.68;8.10;;;;;;;2.15;75.49;101005.72;687451;28;45320;-64
2021/01/19 01:27:49;;;;;;;12.25;8.60;;;;;;;2.13;75.49;101002.34;686081;28;92145;-64
2021/01/19 01:28:10;;;;;;;11.07;7.95;;;;;;;2.13;75.42;101001.47;688366;28;22393;-64
2021/01/19 01:28:35;;;;;;;9.82;7.90;;;;;;;2.13;75.33;101010.34;687720;28;46188;-64
2021/01/19 01:28:57;;;;;;;14.23;8.20;;;;;;;2.12;75.46;100997.97;685490;28;115496;-63
2021/01/19 01:29:18;;;;;;;15.50;8.10;;;;;;;2.13;75.41;101004.13;687385;28;45313;-62
2021/01/19 01:29:39;;;;;;;12.68;8.55;;;;;;;2.14;75.53;101009.34;688462;28;22851;-62
2021/01/19 01:30:01;;;;;;;12.55;8.30;;;;;;;2.16;75.46;101006.56;688560;28;22385;-63
2021/01/19 01:30:23;;;;;;;11.68;8.38;;;;;;;2.15;75.44;101007.56;688393;28;23208;-63
2021/01/19 01:30:44;;;;;;;13.68;8.02;;;;;;;2.15;75.46;101000.41;687845;28;69393;-63
2021/01/19 01:31:06;;;;;;;13.68;8.07;;;;;;;2.16;75.25;101007.44;690021;28;23538;-63
2021/01/19 01:31:27;;;;;;;12.43;8.30;;;;;;;2.11;75.44;100998.91;688515;28;45254;-64
2021/01/19 01:31:48;;;;;;;11.52;8.48;;;;;;;2.16;75.51;101004.78;690418;28;925;-64
2021/01/19 01:32:10;;;;;;;12.25;9.02;;;;;;;2.17;75.51;100994.94;689886;28;4211;-64
2021/01/19 01:32:31;;;;;;;11.82;8.60;;;;;;;2.17;75.19;100998.44;688851;28;45270;-65
2021/01/19 01:32:52;;;;;;;11.32;8.00;;;;;;;2.19;75.44;101002.81;689716;28;24330;-64
2021/01/19 01:33:14;;;;;;;13.38;8.27;;;;;;;2.17;75.45;101001.13;689600;28;23388;-64
2021/01/19 01:33:38;;;;;;;12.07;8.15;;;;;;;2.17;75.48;101000.28;689824;28;37920;-63
2021/01/19 01:34:00;;;;;;;13.25;8.65;;;;;;;2.17;75.49;100998.44;689500;28;22399;-63
2021/01/19 01:34:21;;;;;;;14.13;8.23;;;;;;;2.18;75.38;100996.66;688736;28;47366;-62
2021/01/19 01:34:43;;;;;;;12.35;8.05;;;;;;;2.15;75.41;101002.22;690074;28;13666;-61
2021/01/19 01:35:05;;;;;;;12.23;8.38;;;;;;;2.17;75.53;101000.28;689293;28;32919;-63
2021/01/19 01:35:27;;;;;;;12.30;8.32;;;;;;;2.19;75.50;101000.16;688336;28;46352;-64
2021/01/19 01:35:48;;;;;;;11.00;8.55;;;;;;;2.17;75.31;101006.44;690328;28;875;-62
2021/01/19 01:36:09;;;;;;;12.00;8.57;;;;;;;2.17;75.42;101003.78;690637;28;23475;-62
2021/01/19 01:36:38;;;;;;;12.43;8.23;;;;;;;2.21;75.55;100998.22;689666;28;23440;-63
2021/01/19 01:37:00;;;;;;;14.05;8.40;;;;;;;2.22;75.49;100995.44;685077;28;137258;-63
2021/01/19 01:37:22;;;;;;;15.98;9.15;;;;;;;2.21;75.47;100998.22;688418;28;46283;-64
2021/01/19 01:37:44;;;;;;;13.93;8.77;;;;;;;2.21;75.42;101001.75;688639;28;46271;-64
2021/01/19 01:38:05;;;;;;;13.95;8.68;;;;;;;2.21;75.42;100993.75;688468;28;46673;-62
2021/01/19 01:38:27;;;;;;;12.70;8.45;;;;;;;2.21;75.30;100992.88;689599;28;13397;-62
2021/01/19 01:38:48;;;;;;;12.75;8.10;;;;;;;2.21;75.12;100992.88;689710;28;46486;-62
2021/01/19 01:39:10;;;;;;;13.15;8.10;;;;;;;2.20;75.37;101000.03;688680;28;46520;-64
2021/01/19 01:39:31;;;;;;;12.80;8.88;;;;;;;2.19;75.64;100993.00;689428;28;23675;-63
2021/01/19 01:39:52;;;;;;;12.45;8.68;;;;;;;2.17;75.40;100998.44;689513;28;22361;-64
2021/01/19 01:40:17;;;;;;;13.10;8.63;;;;;;;2.18;75.28;100999.31;688660;28;46040;-64
2021/01/19 01:40:38;;;;;;;11.77;8.23;;;;;;;2.19;75.38;100993.00;686781;28;89594;-64
2021/01/19 01:41:00;;;;;;;12.18;7.93;;;;;;;2.19;75.37;100987.69;689019;28;21389;-64
2021/01/19 01:41:22;;;;;;;12.77;8.25;;;;;;;2.21;75.44;100990.22;688565;28;47698;-63
2021/01/19 01:41:43;;;;;;;12.50;8.38;;;;;;;2.22;75.45;100989.28;688606;28;44452;-64
2021/01/19 01:42:13;;;;;;;11.13;8.50;;;;;;;2.20;75.46;100996.53;687887;28;46472;-64
2021/01/19 01:42:35;;;;;;;12.13;8.43;;;;;;;2.18;75.47;100996.66;682278;28;138031;-64
2021/01/19 01:42:58;;;;;;;12.50;8.18;;;;;;;2.17;75.50;100989.63;685726;28;20037;-64
2021/01/19 01:43:19;;;;;;;14.40;8.65;;;;;;;2.17;75.58;100993.13;684869;28;70375;-64